Time;durP1;ratioP1;P1;durP2;ratioP2;P2;SDS_P1;SDS_P2;PMS_P1;PMS_P2;Temp;Humidity;BMP_temperature;BMP_pressure;BME280_temperature;BME280_humidity;BME280_pressure;Samples;Min_cycle;Max_cycle;Signal;HPM_P1;HPM_P2
2022/01/28 00:01:26;;;;;;;16.00;4.03;;;8.20;68.60;;;11.08;51.95;102076.19;5017089;28;20679;-61
2022/01/28 00:04:11;;;;;;;11.80;3.17;;;8.20;68.50;;;11.07;51.94;102083.25;5032705;28;20207;-61
2022/01/28 00:06:40;;;;;;;8.40;3.00;;;8.10;68.50;;;11.06;52.32;102081.56;5034526;28;20224;-60
2022/01/28 00:09:07;;;;;;;10.37;3.23;;;8.10;68.50;;;11.07;51.93;102088.53;5034630;28;20541;-58
2022/01/28 00:11:35;;;;;;;12.30;3.37;;;8.20;68.70;;;11.11;52.15;102086.41;5036846;28;20265;-60
2022/01/28 00:14:18;;;;;;;14.80;4.07;;;8.10;68.50;;;11.07;51.73;102085.88;5053823;28;20222;-62
2022/01/28 00:39:07;;;;;;;14.57;4.40;;;7.80;69.30;;;10.64;52.63;102104.00;5034264;28;20224;-61
2022/01/28 00:41:35;;;;;;;13.37;3.47;;;7.80;69.40;;;10.66;52.73;102110.81;5033976;28;20301;-61
2022/01/28 00:44:02;;;;;;;14.40;3.37;;;7.80;69.50;;;10.70;52.59;102114.81;5033925;28;20682;-61
2022/01/28 00:46:30;;;;;;;14.13;3.67;;;7.80;69.60;;;10.73;53.04;102125.06;5053925;28;20198;-60
2022/01/28 00:48:57;;;;;;;21.20;4.50;;;7.80;69.70;;;10.81;53.04;102130.47;5053909;28;20217;-61
2022/01/28 00:51:30;;;;;;;14.20;4.43;;;7.80;69.70;;;10.88;52.97;102136.81;5053151;28;20202;-60
2022/01/28 00:53:57;;;;;;;16.83;4.67;;;7.90;69.80;;;10.93;52.76;102148.72;5053548;28;20236;-61
2022/01/28 00:56:26;;;;;;;15.17;4.20;;;7.90;69.80;;;10.94;52.26;102143.31;5053900;28;20710;-60
2022/01/28 00:58:54;;;;;;;16.33;4.57;;;7.90;69.50;;;10.94;52.68;102160.91;5054017;28;20194;-62
2022/01/28 01:01:21;;;;;;;15.97;3.90;;;7.90;69.70;;;10.96;52.81;102156.34;5050901;28;20560;-61
2022/01/28 01:03:49;;;;;;;11.33;4.37;;;7.90;69.60;;;10.97;52.34;102158.00;5053628;28;20243;-62
2022/01/28 01:06:18;;;;;;;18.57;4.23;;;8.00;69.50;;;11.01;52.66;102175.19;5053891;28;20214;-60
2022/01/28 01:08:45;;;;;;;14.37;4.23;;;8.00;69.20;;;11.04;52.11;102181.00;5053118;28;20281;-62
2022/01/28 01:11:13;;;;;;;20.03;4.97;;;8.00;69.20;;;11.08;52.07;102186.84;5052951;28;20213;-58
2022/01/28 01:13:42;;;;;;;15.83;4.60;;;8.00;69.20;;;11.16;52.26;102194.84;5053358;28;20297;-60
2022/01/28 01:16:12;;;;;;;17.87;4.80;;;8.10;69.80;;;11.19;52.15;102194.56;5052806;28;20288;-60
2022/01/28 01:18:50;;;;;;;17.50;4.50;;;8.10;68.90;;;11.24;52.05;102200.25;5052439;28;20525;-60
2022/01/28 01:21:22;;;;;;;19.83;4.67;;;8.20;68.80;;;11.26;52.14;102199.13;5053456;28;20209;-60
2022/01/28 01:23:53;;;;;;;18.90;4.50;;;8.20;68.60;;;11.28;51.41;102198.97;5053110;28;20241;-60
2022/01/28 01:26:34;;;;;;;15.07;3.47;;;8.20;68.50;;;11.29;51.77;102211.19;5053035;28;20244;-61
2022/01/28 01:29:11;;;;;;;16.27;4.60;;;8.20;68.60;;;11.26;51.46;102206.19;5052790;28;20288;-61
2022/01/28 01:31:41;;;;;;;15.40;3.67;;;8.20;68.50;;;11.25;51.44;102199.25;5053742;28;20268;-61
2022/01/28 01:34:16;;;;;;;21.60;4.50;;;8.20;68.70;;;11.25;51.95;102205.38;5051314;28;20302;-62
2022/01/28 01:36:44;;;;;;;10.03;3.53;;;8.20;68.70;;;11.25;51.41;102209.81;5053468;28;20280;-61
2022/01/28 01:39:23;;;;;;;15.03;3.80;;;8.20;68.70;;;11.24;51.80;102223.97;5053148;28;20611;-61
2022/01/28 01:42:00;;;;;;;10.47;3.13;;;8.20;68.70;;;11.23;52.05;102222.28;5053314;28;20617;-62
2022/01/28 01:44:57;;;;;;;10.93;3.20;;;8.20;68.60;;;11.19;51.68;102220.94;5054616;28;20633;-61
2022/01/28 01:52:51;;;;;;;16.30;3.67;;;8.20;68.90;;;11.12;52.32;102240.91;5056809;28;20340;-61
2022/01/28 01:55:19;;;;;;;10.70;3.40;;;8.20;69.10;;;11.14;52.01;102249.50;5057186;28;20220;-60
2022/01/28 01:57:47;;;;;;;15.30;4.57;;;8.20;69.20;;;11.17;52.52;102257.13;5057359;28;20194;-62
2022/01/28 02:00:17;;;;;;;13.27;3.37;;;8.20;69.40;;;11.21;51.92;102261.13;5057295;28;20217;-62
2022/01/28 02:02:44;;;;;;;16.13;4.07;;;8.20;69.40;;;11.25;52.53;102259.88;5057155;28;20236;-59
2022/01/28 02:05:12;;;;;;;14.80;3.73;;;8.20;69.30;;;11.28;52.41;102270.16;5055966;28;20190;-62
2022/01/28 02:07:43;;;;;;;13.63;3.63;;;8.30;69.40;;;11.32;52.06;102268.88;5055384;28;20227;-61
2022/01/28 02:10:10;;;;;;;13.03;3.53;;;8.30;69.20;;;11.36;52.37;102273.72;5057006;28;20213;-60
2022/01/28 02:12:46;;;;;;;18.60;5.07;;;8.30;68.90;;;11.39;52.02;102269.97;5056632;28;20205;-59
2022/01/28 02:15:15;;;;;;;12.87;4.83;;;8.40;68.90;;;11.45;52.25;102275.53;5057810;28;20201;-61
2022/01/28 02:17:44;;;;;;;19.00;5.23;;;8.40;68.80;;;11.49;51.77;102273.44;5058944;28;20280;-60
2022/01/28 02:20:21;;;;;;;14.70;4.10;;;8.40;68.40;;;11.48;51.62;102272.59;5058160;28;20186;-61
2022/01/28 02:22:48;;;;;;;17.83;4.70;;;8.40;68.20;;;11.47;51.07;102284.13;5053353;28;20659;-62
2022/01/28 02:25:27;;;;;;;16.97;4.37;;;8.40;67.80;;;11.43;51.24;102290.63;5036844;28;20340;-62
2022/01/28 02:27:57;;;;;;;15.03;3.93;;;8.40;67.50;;;11.46;51.20;102300.06;5035687;28;20206;-62
2022/01/28 02:30:26;;;;;;;10.30;3.93;;;8.40;67.10;;;11.47;50.78;102304.38;5035503;28;20191;-62
2022/01/28 02:33:01;;;;;;;13.53;3.83;;;8.50;67.30;;;11.49;51.18;102297.16;5034971;28;20207;-62
2022/01/28 02:35:30;;;;;;;9.27;3.57;;;8.50;66.80;;;11.50;50.36;102293.56;5035311;28;20229;-62
2022/01/28 02:37:57;;;;;;;13.03;3.90;;;8.50;66.70;;;11.53;50.22;102306.44;5036339;28;20245;-62
2022/01/28 02:40:25;;;;;;;10.53;3.90;;;8.50;66.30;;;11.55;50.52;102312.44;5051827;28;20631;-61
2022/01/28 02:43:01;;;;;;;12.77;4.17;;;8.50;66.30;;;11.60;50.38;102330.47;5055847;28;20663;-62
2022/01/28 02:45:35;;;;;;;22.00;5.50;;;8.50;66.10;;;11.63;50.31;102320.44;5055275;28;20193;-62
2022/01/28 02:48:08;;;;;;;13.10;5.40;;;8.60;65.90;;;11.64;49.65;102322.13;5055036;28;20761;-62
2022/01/28 02:50:47;;;;;;;14.63;4.40;;;8.60;65.60;;;11.63;49.61;102325.72;5056267;28;20553;-62
2022/01/28 02:53:24;;;;;;;8.77;3.43;;;8.60;65.20;;;11.63;49.71;102320.44;5055961;28;20674;-62
2022/01/28 02:55:58;;;;;;;10.63;3.90;;;8.60;65.30;;;11.64;49.45;102337.09;5042061;28;20252;-62
2022/01/28 02:58:26;;;;;;;21.93;4.17;;;8.60;64.80;;;11.64;48.95;102332.66;5035094;28;20638;-60
2022/01/28 03:00:57;;;;;;;12.30;3.63;;;8.60;64.10;;;11.66;48.74;102343.91;5035579;28;20206;-61
2022/01/28 03:03:25;;;;;;;18.80;4.70;;;8.60;63.90;;;11.66;48.96;102341.25;5035810;28;20209;-60
2022/01/28 03:05:54;;;;;;;13.13;4.20;;;8.60;63.80;;;11.69;48.70;102346.28;5035863;28;20187;-59
2022/01/28 03:08:25;;;;;;;14.13;4.20;;;8.60;63.90;;;11.70;48.29;102341.84;5035793;28;20222;-59
2022/01/28 03:16:27;;;;;;;12.10;3.97;;;8.70;63.30;;;11.58;48.13;102355.16;5057143;28;20654;-60
2022/01/28 03:18:59;;;;;;;13.10;4.23;;;8.60;63.10;;;11.55;48.36;102360.69;5055754;28;20193;-62
2022/01/28 03:23:59;;;;;;;16.07;4.07;;;8.60;63.00;;;11.49;48.52;102352.53;5054062;28;20271;-62
2022/01/28 03:26:28;;;;;;;13.07;3.90;;;8.50;63.00;;;11.48;48.45;102366.69;5055515;28;20608;-63
2022/01/28 03:28:57;;;;;;;14.63;4.00;;;8.50;63.20;;;11.49;48.74;102365.72;5053641;28;20541;-61
2022/01/28 03:31:25;;;;;;;9.37;4.00;;;8.50;63.20;;;11.53;48.77;102372.34;5055093;28;20209;-61
2022/01/28 03:33:52;;;;;;;15.00;4.70;;;8.50;63.40;;;11.57;48.55;102373.75;5054620;28;20214;-62
2022/01/28 03:36:20;;;;;;;17.30;5.40;;;8.50;63.50;;;11.61;48.08;102376.94;5055027;28;20218;-60
2022/01/28 03:38:49;;;;;;;17.87;4.57;;;8.60;63.70;;;11.63;48.36;102380.25;5055333;28;20200;-62
2022/01/28 03:41:19;;;;;;;19.17;5.23;;;8.60;63.50;;;11.65;48.19;102371.22;5054084;28;20384;-62
2022/01/28 03:43:47;;;;;;;14.20;4.73;;;8.60;63.50;;;11.66;48.86;102388.75;5053066;28;20210;-60
2022/01/28 03:46:16;;;;;;;12.23;4.50;;;8.60;63.70;;;11.67;47.80;102398.28;5054940;28;20189;-60
2022/01/28 03:48:43;;;;;;;17.97;4.57;;;8.60;63.50;;;11.67;48.45;102393.03;5054952;28;20186;-62
2022/01/28 03:51:11;;;;;;;11.33;3.60;;;8.70;63.40;;;11.68;48.01;102397.38;5054775;28;20197;-62
2022/01/28 03:53:38;;;;;;;16.03;3.60;;;8.60;63.10;;;11.68;48.22;102399.16;5054365;28;20288;-62
2022/01/28 03:56:07;;;;;;;21.07;4.87;;;8.70;63.40;;;11.68;47.93;102402.66;5054539;28;20206;-62
2022/01/28 03:58:34;;;;;;;11.60;4.37;;;8.60;62.90;;;11.67;47.99;102416.75;5054630;28;20682;-60
2022/01/28 04:01:07;;;;;;;13.33;3.77;;;8.60;63.10;;;11.66;48.47;102399.28;5052698;28;20326;-61
2022/01/28 04:11:30;;;;;;;10.93;3.63;;;8.60;63.10;;;11.68;48.04;102444.84;5054305;28;20196;-61
2022/01/28 04:14:10;;;;;;;13.80;3.80;;;8.60;63.10;;;11.70;48.37;102442.91;5054250;28;20321;-61
2022/01/28 04:19:25;;;;;;;13.40;4.13;;;8.70;62.70;;;11.70;47.92;102448.16;5054159;28;20201;-60
2022/01/28 04:21:52;;;;;;;16.83;4.23;;;8.70;62.40;;;11.68;47.23;102442.22;5054086;28;20222;-61
2022/01/28 04:24:19;;;;;;;8.90;3.37;;;8.70;61.90;;;11.66;47.51;102452.03;5052668;28;20697;-61
2022/01/28 04:26:48;;;;;;;12.30;2.73;;;8.70;62.00;;;11.62;47.35;102477.03;5052941;28;20209;-61
2022/01/28 04:29:16;;;;;;;11.47;3.00;;;8.70;61.90;;;11.60;47.58;102489.50;5054417;28;20186;-61
2022/01/28 04:31:46;;;;;;;12.03;2.63;;;8.70;62.50;;;11.62;47.63;102489.38;5054059;28;20336;-61
2022/01/28 04:34:15;;;;;;;10.93;2.70;;;8.60;61.80;;;11.63;47.34;102491.88;5051155;28;20271;-60
2022/01/28 04:37:01;;;;;;;9.03;2.80;;;8.60;61.30;;;11.64;46.83;102490.91;5053910;28;20194;-62
2022/01/28 04:42:20;;;;;;;10.37;2.60;;;8.60;61.40;;;11.66;46.89;102498.66;5053478;28;20224;-62
2022/01/28 04:50:38;;;;;;;9.80;2.83;;;8.60;61.60;;;11.60;46.83;102502.69;5037326;28;20244;-62
2022/01/28 05:28:22;;;;;;;11.27;4.27;;;8.30;65.00;;;11.26;49.34;102560.22;5033379;28;20194;-62
2022/01/28 05:30:50;;;;;;;13.27;4.03;;;8.30;65.20;;;11.27;49.52;102571.56;5033095;28;20246;-60
2022/01/28 05:33:18;;;;;;;10.13;4.10;;;8.30;65.40;;;11.27;49.92;102588.22;5036283;28;20201;-63
2022/01/28 05:35:45;;;;;;;12.90;3.70;;;8.30;65.50;;;11.28;50.04;102596.97;5052867;28;20214;-60
2022/01/28 05:38:13;;;;;;;12.97;4.33;;;8.30;65.70;;;11.30;49.47;102610.84;5053100;28;20288;-62
2022/01/28 05:40:40;;;;;;;15.40;3.33;;;8.30;65.80;;;11.31;49.90;102609.91;5051447;28;20197;-62
2022/01/28 05:43:07;;;;;;;14.87;4.57;;;8.30;65.70;;;11.32;49.50;102603.66;5052099;28;20745;-61
2022/01/28 05:45:40;;;;;;;9.00;3.27;;;8.30;65.90;;;11.34;49.55;102599.06;5052860;28;20220;-61
2022/01/28 05:48:09;;;;;;;14.50;4.53;;;8.30;66.80;;;11.35;49.70;102600.75;5040821;28;20231;-62
2022/01/28 05:50:36;;;;;;;14.07;4.90;;;8.30;65.70;;;11.36;49.42;102597.97;5015208;28;20229;-61
2022/01/28 05:53:04;;;;;;;18.63;5.07;;;8.30;65.60;;;11.37;49.27;102614.63;5031281;28;20190;-60
2022/01/28 05:55:32;;;;;;;13.07;4.57;;;8.30;65.60;;;11.37;49.55;102619.91;5032859;28;20257;-59
2022/01/28 05:58:00;;;;;;;16.70;4.40;;;8.30;65.50;;;11.37;49.46;102625.19;5032630;28;20198;-62
2022/01/28 06:00:28;;;;;;;15.07;4.07;;;8.30;65.40;;;11.41;50.13;102626.59;5032867;28;20249;-59
2022/01/28 06:02:55;;;;;;;12.77;4.33;;;8.30;65.50;;;11.43;49.73;102629.94;5032888;28;20284;-61
2022/01/28 06:05:30;;;;;;;14.00;4.30;;;8.40;65.70;;;11.46;49.34;102627.84;5052894;28;20477;-61
2022/01/28 06:07:58;;;;;;;19.60;5.30;;;8.40;65.70;;;11.51;49.43;102638.00;5051460;28;20257;-61
2022/01/28 06:10:25;;;;;;;13.47;4.87;;;8.40;65.70;;;11.54;49.60;102640.38;5053124;28;20200;-62
2022/01/28 06:12:53;;;;;;;19.60;5.10;;;8.40;65.40;;;11.54;49.30;102649.13;5034667;28;20543;-62
2022/01/28 06:15:20;;;;;;;16.30;4.83;;;8.40;65.10;;;11.55;49.07;102645.50;5050936;28;20565;-60
2022/01/28 06:17:48;;;;;;;21.93;5.63;;;8.40;65.20;;;11.59;48.94;102646.09;5043133;28;20268;-63
2022/01/28 06:20:19;;;;;;;16.53;4.70;;;8.50;65.30;;;11.61;49.37;102648.56;5032706;28;20223;-60
2022/01/28 06:22:49;;;;;;;12.10;5.17;;;8.50;64.80;;;11.62;49.23;102659.00;5032447;28;20212;-62
2022/01/28 06:25:17;;;;;;;20.53;5.83;;;8.50;64.60;;;11.63;48.89;102660.66;5031489;28;20282;-59
2022/01/28 06:27:45;;;;;;;11.30;4.10;;;8.50;64.30;;;11.64;48.90;102674.69;5032561;28;20670;-63
2022/01/28 06:30:13;;;;;;;16.60;5.07;;;8.50;64.10;;;11.65;48.57;102677.19;5034687;28;20260;-62
2022/01/28 06:32:41;;;;;;;15.10;4.20;;;8.50;63.10;;;11.67;48.62;102685.78;5035498;28;20187;-61
2022/01/28 06:35:08;;;;;;;20.37;4.60;;;8.60;63.10;;;11.72;47.61;102680.97;5053834;28;20225;-61
2022/01/28 06:37:38;;;;;;;14.27;4.00;;;8.60;62.60;;;11.75;47.87;102685.16;5057333;28;20550;-64
2022/01/28 06:40:11;;;;;;;16.50;4.63;;;8.60;62.20;;;11.79;47.69;102695.31;5055866;28;20654;-62
2022/01/28 06:42:39;;;;;;;16.97;4.77;;;8.70;61.80;;;11.81;47.36;102693.41;5055059;28;20589;-61
2022/01/28 06:45:07;;;;;;;16.73;4.13;;;8.70;61.80;;;11.84;46.72;102708.94;5055580;28;20697;-64
2022/01/28 06:47:35;;;;;;;11.60;3.83;;;8.70;61.60;;;11.88;46.42;102697.16;5055379;28;20548;-63
2022/01/28 06:50:05;;;;;;;18.60;5.13;;;8.70;60.30;;;11.89;46.55;102700.63;5053934;28;20285;-62
2022/01/28 06:52:33;;;;;;;15.50;4.60;;;8.70;60.40;;;11.90;46.39;102703.13;5053854;28;20190;-63
2022/01/28 06:55:03;;;;;;;18.67;4.20;;;8.80;60.70;;;11.91;46.68;102698.69;5055438;28;20237;-63
2022/01/28 06:57:31;;;;;;;16.57;4.50;;;8.80;60.20;;;11.91;46.18;102710.06;5055475;28;20189;-60
2022/01/28 06:59:59;;;;;;;17.93;5.40;;;8.80;60.30;;;11.91;46.30;102706.63;5053919;28;20287;-64
2022/01/28 07:02:27;;;;;;;22.10;5.53;;;8.80;59.90;;;11.92;45.94;102705.63;5055022;28;20222;-62
2022/01/28 07:04:55;;;;;;;20.13;5.33;;;8.80;59.90;;;11.91;46.30;102704.78;5055760;28;20205;-64
2022/01/28 07:07:24;;;;;;;17.23;4.57;;;8.80;59.80;;;11.92;45.91;102701.19;5052601;28;20330;-58
2022/01/28 07:09:53;;;;;;;21.53;5.03;;;8.90;59.80;;;11.92;45.92;102709.13;5055629;28;20234;-63
2022/01/28 07:12:22;;;;;;;19.40;5.07;;;8.80;59.20;;;11.91;45.42;102712.72;5054856;28;20221;-65
2022/01/28 07:14:53;;;;;;;19.10;4.57;;;8.80;59.40;;;11.92;45.76;102717.03;5055093;28;20232;-64
2022/01/28 07:17:20;;;;;;;14.67;4.80;;;8.80;59.50;;;11.94;45.92;102725.63;5037953;28;20202;-62
2022/01/28 07:19:48;;;;;;;12.17;3.70;;;8.80;59.30;;;11.94;45.44;102730.91;5054642;28;20547;-61
2022/01/28 07:22:15;;;;;;;13.90;4.20;;;8.80;59.20;;;11.95;45.81;102743.16;5053538;28;20216;-62
2022/01/28 07:24:43;;;;;;;17.67;5.43;;;8.90;59.60;;;11.96;45.68;102746.59;5033369;28;20747;-62
2022/01/28 07:27:11;;;;;;;14.53;4.30;;;8.90;59.30;;;11.98;45.18;102742.88;5034028;28;20218;-61
2022/01/28 07:29:38;;;;;;;17.43;4.77;;;8.90;59.20;;;12.00;45.37;102746.22;5034421;28;20689;-61
2022/01/28 07:32:08;;;;;;;16.23;4.73;;;8.90;58.90;;;12.03;45.31;102751.22;5034343;28;20190;-62
2022/01/28 07:34:36;;;;;;;15.57;3.70;;;9.00;58.90;;;12.05;45.14;102754.56;5033108;28;20244;-62
2022/01/28 07:37:04;;;;;;;17.03;4.90;;;9.00;58.40;;;12.05;45.00;102757.19;5034587;28;20235;-61
2022/01/28 07:39:31;;;;;;;20.30;6.13;;;9.00;58.50;;;12.06;44.58;102756.25;5035581;28;20186;-60
2022/01/28 07:41:59;;;;;;;17.33;4.80;;;9.00;58.60;;;12.10;44.64;102759.44;5033878;28;20225;-62
2022/01/28 07:44:26;;;;;;;13.23;4.60;;;9.10;58.10;;;12.11;44.85;102771.66;5032258;28;20214;-61
2022/01/28 07:46:54;;;;;;;14.90;4.13;;;9.10;58.10;;;12.12;44.60;102770.72;5034472;28;20195;-62
2022/01/28 07:49:22;;;;;;;16.30;4.17;;;9.10;57.90;;;12.14;44.30;102769.63;5034491;28;20497;-61
2022/01/28 07:51:50;;;;;;;15.03;4.10;;;9.10;57.80;;;12.17;44.29;102779.88;5035354;28;20220;-61
2022/01/28 07:54:17;;;;;;;11.43;4.10;;;9.10;57.20;;;12.19;44.25;102783.22;5033056;28;20313;-63
2022/01/28 07:56:47;;;;;;;14.93;4.30;;;9.10;57.30;;;12.21;43.65;102781.31;5034538;28;20226;-62
2022/01/28 07:59:15;;;;;;;16.27;4.53;;;9.10;56.80;;;12.22;43.70;102782.94;5034026;28;20248;-64
2022/01/28 08:01:42;;;;;;;18.23;4.70;;;9.10;56.90;;;12.23;43.52;102805.75;5034140;28;20229;-63
2022/01/28 08:04:10;;;;;;;20.10;4.60;;;9.20;57.10;;;12.24;43.98;102812.69;5033647;28;20647;-61
2022/01/28 08:06:38;;;;;;;15.33;4.13;;;9.10;57.90;;;12.20;44.36;102803.38;5034124;28;20662;-61
2022/01/28 08:09:06;;;;;;;12.33;4.07;;;9.10;58.30;;;12.12;44.76;102802.38;5033695;28;20194;-64
2022/01/28 08:11:34;;;;;;;10.07;3.70;;;9.00;58.40;;;12.08;45.01;102807.09;5033538;28;20709;-64
2022/01/28 08:14:02;;;;;;;13.43;4.53;;;9.00;58.80;;;12.08;44.91;102804.44;5051827;28;20214;-60
2022/01/28 08:16:30;;;;;;;14.73;3.90;;;9.00;59.30;;;12.11;45.22;102812.09;5053710;28;20200;-59
2022/01/28 08:18:57;;;;;;;9.73;3.43;;;9.00;59.70;;;12.14;45.57;102809.22;5052959;28;20271;-58
2022/01/28 08:21:25;;;;;;;13.13;4.10;;;9.10;59.70;;;12.16;45.69;102811.69;5053472;28;20196;-58
2022/01/28 08:23:53;;;;;;;14.90;4.40;;;9.10;59.70;;;12.19;45.60;102817.53;5041413;28;20238;-62
2022/01/28 08:26:21;;;;;;;11.67;4.70;;;9.10;59.70;;;12.22;45.33;102824.34;5038258;28;20224;-58
2022/01/28 08:28:49;;;;;;;15.50;4.40;;;9.10;59.70;;;12.25;45.29;102839.94;5038505;28;20238;-64
2022/01/28 08:31:16;;;;;;;16.00;4.10;;;9.10;59.80;;;12.30;45.32;102850.09;5037359;28;20221;-64
2022/01/28 08:33:44;;;;;;;13.80;4.17;;;9.10;59.40;;;12.29;44.90;102843.97;5035408;28;20231;-64
2022/01/28 08:36:11;;;;;;;15.67;3.87;;;9.10;59.20;;;12.31;45.02;102854.41;5034327;28;20636;-64
2022/01/28 08:38:44;;;;;;;15.13;4.73;;;9.10;59.20;;;12.33;44.68;102847.19;5034202;28;20288;-65
2022/01/28 08:41:13;;;;;;;11.00;3.83;;;9.10;58.60;;;12.33;44.22;102849.84;5035461;28;20232;-65
2022/01/28 08:43:42;;;;;;;13.07;4.10;;;9.10;58.20;;;12.34;44.64;102859.44;5036033;28;20306;-63
2022/01/28 08:46:10;;;;;;;11.03;4.47;;;9.10;58.50;;;12.38;44.61;102871.41;5036374;28;20304;-64
2022/01/28 08:48:38;;;;;;;21.67;4.67;;;9.20;58.80;;;12.45;44.60;102875.19;5035617;28;20281;-67
2022/01/28 08:51:06;;;;;;;16.87;4.37;;;9.20;58.80;;;12.52;44.51;102874.50;5036289;28;20284;-65
2022/01/28 08:53:34;;;;;;;12.87;4.80;;;9.30;58.60;;;12.61;44.42;102883.44;5016656;28;20309;-64
2022/01/28 08:56:01;;;;;;;16.87;4.03;;;9.40;58.50;;;12.69;44.34;102887.06;5035023;28;20202;-64
2022/01/28 08:58:30;;;;;;;15.20;4.37;;;9.40;58.40;;;12.79;44.26;102892.34;5030313;28;20213;-65
2022/01/28 09:00:57;;;;;;;14.83;4.23;;;9.50;57.80;;;12.85;43.93;102897.13;5036892;28;20230;-65
2022/01/28 09:03:29;;;;;;;13.43;3.67;;;9.60;57.90;;;12.90;43.75;102897.56;5033873;28;20268;-66
2022/01/28 09:05:57;;;;;;;14.93;4.30;;;9.70;57.60;;;12.96;43.60;102898.78;5032362;28;20293;-65
2022/01/28 09:08:24;;;;;;;20.13;5.17;;;9.70;57.20;;;13.02;43.60;102907.03;5030371;28;20288;-66
2022/01/28 09:13:56;;;;;;;12.77;4.60;;;9.80;57.00;;;13.11;42.87;102910.69;5000429;28;20287;-64
2022/01/28 09:16:24;;;;;;;14.80;4.90;;;9.90;56.50;;;13.12;42.92;102915.81;5026340;28;20206;-63
2022/01/28 09:18:55;;;;;;;11.47;3.80;;;9.90;56.40;;;13.15;42.83;102923.50;5033720;28;20205;-64
2022/01/28 09:21:22;;;;;;;14.33;4.50;;;9.90;56.70;;;13.23;43.08;102928.09;5034632;28;20748;-63
2022/01/28 09:23:49;;;;;;;18.03;4.23;;;10.00;55.80;;;13.32;42.16;102930.75;5034088;28;20233;-63
2022/01/28 09:26:17;;;;;;;19.93;4.53;;;10.00;54.20;;;13.43;41.91;102930.59;5034629;28;20664;-63
2022/01/28 09:28:44;;;;;;;18.97;4.80;;;10.10;54.40;;;13.51;41.26;102925.47;5034992;28;20299;-62
2022/01/28 09:31:14;;;;;;;13.70;3.90;;;10.20;53.80;;;13.60;41.10;102941.50;5035568;28;20200;-67
2022/01/28 09:33:43;;;;;;;11.13;4.37;;;10.30;53.60;;;13.67;40.87;102939.97;5033529;28;20238;-64
2022/01/28 09:36:10;;;;;;;12.07;4.63;;;10.30;53.00;;;13.77;40.81;102948.69;5033489;28;20209;-64
2022/01/28 09:38:38;;;;;;;13.83;4.97;;;10.40;53.40;;;13.86;40.81;102953.97;5017294;28;20202;-65
2022/01/28 09:41:09;;;;;;;13.53;5.70;;;10.50;53.30;;;13.91;40.20;102961.50;5041204;28;20217;-59
2022/01/28 09:43:36;;;;;;;11.73;5.60;;;10.60;52.00;;;13.86;39.13;102955.81;5045559;28;20588;-62
2022/01/28 09:46:05;;;;;;;21.17;5.70;;;10.50;50.50;;;13.76;38.75;102962.94;5045611;28;20304;-64
2022/01/28 09:48:34;;;;;;;14.47;5.27;;;10.50;49.90;;;13.73;39.24;102963.19;5048747;28;20536;-63
2022/01/28 09:51:03;;;;;;;13.53;4.53;;;10.40;50.80;;;14.03;39.18;102960.38;5046911;28;20567;-64
2022/01/28 09:53:31;;;;;;;13.67;5.17;;;10.50;51.20;;;14.60;39.15;102957.59;5048782;28;20261;-63
2022/01/28 09:55:59;;;;;;;12.87;4.87;;;10.80;51.30;;;15.23;37.99;102962.97;5044127;28;20272;-64
2022/01/28 09:58:26;;;;;;;16.37;4.30;;;11.20;50.90;;;15.89;37.02;102964.28;5049670;28;20190;-64
2022/01/28 10:00:54;;;;;;;13.73;4.13;;;11.60;50.00;;;16.50;35.57;102971.28;5047705;28;20553;-61
2022/01/28 10:03:26;;;;;;;10.53;3.57;;;12.10;47.60;;;17.04;35.32;102964.75;5046751;28;20217;-64
2022/01/28 10:05:58;;;;;;;18.23;4.80;;;12.70;48.50;;;17.59;33.33;102965.84;5051695;28;20259;-66
2022/01/28 10:08:27;;;;;;;12.07;3.77;;;13.10;44.90;;;18.17;33.60;102971.00;5044210;28;20281;-63
2022/01/28 10:11:03;;;;;;;19.50;9.23;;;13.70;46.50;;;18.84;32.19;102975.00;5038100;28;20214;-66
2022/01/28 10:13:37;;;;;;;11.73;4.30;;;14.20;44.10;;;19.39;31.40;102966.88;5036673;28;20217;-63
2022/01/28 10:16:10;;;;;;;14.30;4.53;;;14.80;43.10;;;19.59;31.27;102966.22;5035886;28;20288;-64
2022/01/28 10:18:51;;;;;;;11.17;4.00;;;15.20;42.80;;;19.83;30.74;102969.69;5037756;28;20237;-63
2022/01/28 10:21:31;;;;;;;9.97;4.13;;;15.60;42.10;;;19.84;29.19;102971.34;5037965;28;20675;-66
2022/01/28 10:24:14;;;;;;;10.13;3.97;;;15.80;38.70;;;19.73;29.29;102972.59;5037359;28;20217;-61
2022/01/28 10:26:47;;;;;;;11.33;4.63;;;15.90;37.50;;;19.87;29.65;102979.84;5037741;28;20248;-65
2022/01/28 10:29:18;;;;;;;14.23;5.33;;;16.00;39.10;;;20.24;29.50;102979.03;5037210;28;20208;-65
2022/01/28 10:31:56;;;;;;;16.03;5.47;;;16.20;38.60;;;20.57;27.90;102971.47;5036945;28;20287;-67
2022/01/28 10:34:31;;;;;;;13.03;4.00;;;16.30;37.20;;;20.87;28.67;102968.56;5019945;28;20282;-66
2022/01/28 10:37:19;;;;;;;9.57;4.20;;;16.60;38.60;;;21.21;28.31;102970.66;5037069;28;20208;-63
2022/01/28 10:39:51;;;;;;;10.80;4.07;;;16.90;36.70;;;21.40;27.93;102972.69;5036293;28;20627;-66
2022/01/28 10:42:35;;;;;;;13.20;5.20;;;17.00;36.70;;;21.66;27.36;102979.31;5019525;28;20239;-66
2022/01/28 10:45:11;;;;;;;12.37;4.73;;;17.20;36.50;;;21.91;26.67;102983.31;5034623;28;20279;-64
2022/01/28 10:47:41;;;;;;;11.63;5.10;;;17.40;35.80;;;22.01;27.04;102984.59;5035893;28;20201;-65
2022/01/28 10:50:23;;;;;;;15.87;4.13;;;17.50;36.10;;;22.18;27.03;102985.97;5038747;28;20194;-64
2022/01/28 10:53:06;;;;;;;12.87;5.50;;;17.70;35.50;;;22.39;26.51;102989.63;5036879;28;20194;-63
2022/01/28 10:55:36;;;;;;;12.67;4.53;;;18.00;35.20;;;22.56;26.28;103005.22;5040132;28;20684;-64
2022/01/28 10:58:06;;;;;;;13.00;4.20;;;18.20;35.00;;;22.72;25.75;102994.19;5034054;28;21693;-65
2022/01/28 11:00:36;;;;;;;14.07;4.93;;;18.40;34.20;;;22.79;25.58;103005.81;5038053;28;21165;-65
2022/01/28 11:03:10;;;;;;;14.63;7.00;;;18.40;34.20;;;22.72;25.48;103004.94;5033819;28;20205;-65
2022/01/28 11:05:39;;;;;;;12.07;3.57;;;18.40;33.90;;;22.44;25.45;103006.78;5035510;28;20213;-64
2022/01/28 11:08:11;;;;;;;12.23;5.07;;;18.30;33.60;;;22.20;25.76;103000.03;5036424;28;20272;-66
2022/01/28 11:10:40;;;;;;;11.90;4.43;;;18.00;33.90;;;21.96;25.78;102991.59;5035482;28;20240;-66
2022/01/28 11:13:08;;;;;;;17.87;4.50;;;17.90;33.80;;;21.60;26.00;102986.31;5036584;28;20213;-64
2022/01/28 11:15:36;;;;;;;14.00;4.50;;;17.60;34.10;;;21.26;26.45;102989.66;5036222;28;20280;-66
2022/01/28 11:18:08;;;;;;;13.50;4.27;;;17.40;34.50;;;21.21;26.64;103002.78;5035711;28;20961;-65
2022/01/28 11:20:41;;;;;;;13.27;4.13;;;17.20;34.50;;;21.05;27.11;103011.06;5036976;28;20208;-64
2022/01/28 11:23:25;;;;;;;12.70;4.20;;;17.10;35.40;;;20.82;27.60;103023.72;5031614;28;20314;-64
2022/01/28 11:26:12;;;;;;;14.97;4.80;;;17.00;35.60;;;20.62;26.91;103017.25;5036138;28;20634;-64
2022/01/28 11:28:43;;;;;;;12.90;4.43;;;16.90;35.10;;;20.35;27.51;103021.38;5036788;28;21041;-64
2022/01/28 11:31:13;;;;;;;14.83;5.10;;;16.50;34.50;;;19.90;27.43;103032.13;5050508;28;20602;-61
2022/01/28 11:33:50;;;;;;;10.57;3.83;;;16.10;34.60;;;19.79;27.71;103019.19;5046659;28;20593;-63
2022/01/28 11:36:32;;;;;;;10.10;4.67;;;16.00;35.30;;;19.76;28.14;103024.88;5048704;28;20285;-63
2022/01/28 11:39:18;;;;;;;13.17;3.83;;;15.90;35.90;;;19.89;27.91;103020.63;5050607;28;20253;-63
2022/01/28 11:42:04;;;;;;;10.63;3.93;;;15.90;37.00;;;19.66;28.25;103027.78;5050672;28;20193;-65
2022/01/28 11:44:54;;;;;;;12.20;4.13;;;15.80;36.90;;;19.25;28.67;103032.53;5045646;28;20256;-64
2022/01/28 11:47:25;;;;;;;11.67;4.33;;;15.60;36.70;;;18.85;28.93;103036.19;5046960;28;20247;-64
2022/01/28 11:49:57;;;;;;;12.30;4.30;;;15.30;37.30;;;18.53;29.85;103036.31;5047736;28;20213;-62
2022/01/28 11:52:29;;;;;;;11.60;3.70;;;15.10;38.20;;;18.29;30.22;103028.31;5049434;28;20196;-64
2022/01/28 11:55:33;;;;;;;13.33;5.03;;;14.80;38.70;;;17.91;30.74;103034.31;5048632;28;20214;-62
2022/01/28 11:58:04;;;;;;;12.73;4.80;;;14.60;39.40;;;17.69;31.21;103034.97;5048839;28;20313;-65